createdAt,value
2023-07-09T00:01:18.572Z,12.27
2023-07-09T00:03:47.294Z,11.73
2023-07-09T00:06:15.356Z,13.98
2023-07-09T00:08:47.535Z,13.25
2023-07-09T00:11:16.939Z,11.55
2023-07-09T00:13:44.694Z,13.63
2023-07-09T00:16:15.670Z,12.63
2023-07-09T00:18:43.751Z,11.38
2023-07-09T00:21:11.269Z,16.98
2023-07-09T00:23:39.678Z,11.55
2023-07-09T00:26:10.897Z,12.75
2023-07-09T00:28:39.852Z,15.60
2023-07-09T00:31:10.850Z,12.75
2023-07-09T00:33:39.969Z,10.45
2023-07-09T00:36:16.606Z,14.43
2023-07-09T00:38:49.581Z,10.73
2023-07-09T00:41:20.198Z,11.73
2023-07-09T00:43:50.333Z,11.18
2023-07-09T00:46:55.020Z,12.88
2023-07-09T00:49:31.250Z,13.00
2023-07-09T00:52:03.536Z,12.07
2023-07-09T00:54:37.961Z,14.90
2023-07-09T00:57:11.014Z,12.50
2023-07-09T00:59:41.934Z,10.93
2023-07-09T01:02:10.835Z,13.13
2023-07-09T01:04:40.238Z,13.07
2023-07-09T01:07:08.649Z,11.63
2023-07-09T01:09:41.966Z,11.35
2023-07-09T01:12:11.270Z,11.52
2023-07-09T01:14:40.527Z,10.82
2023-07-09T01:17:12.704Z,11.00
2023-07-09T01:19:44.403Z,12.27
2023-07-09T01:22:15.794Z,11.82
2023-07-09T01:24:53.785Z,10.32
2023-07-09T01:27:27.493Z,10.40
2023-07-09T01:29:56.813Z,12.93
2023-07-09T01:32:24.527Z,12.60
2023-07-09T01:34:55.650Z,10.65
2023-07-09T01:37:27.882Z,10.85
2023-07-09T01:39:56.096Z,12.70
2023-07-09T01:42:25.979Z,9.60
2023-07-09T01:44:55.371Z,10.90
2023-07-09T01:47:24.808Z,11.32
2023-07-09T01:49:57.952Z,10.68
2023-07-09T01:52:29.116Z,12.35
2023-07-09T01:54:57.066Z,11.13
2023-07-09T01:57:27.040Z,9.17
2023-07-09T01:59:56.536Z,9.68
2023-07-09T02:02:24.760Z,10.95
2023-07-09T02:04:55.720Z,10.68
2023-07-09T02:07:25.270Z,9.82
2023-07-09T02:09:55.060Z,11.80
2023-07-09T02:12:22.668Z,12.15
2023-07-09T02:14:50.677Z,10.48
2023-07-09T02:17:18.935Z,10.50
2023-07-09T02:19:46.584Z,10.07
2023-07-09T02:22:14.365Z,10.83
2023-07-09T02:24:41.877Z,10.98
2023-07-09T02:27:12.204Z,11.27
2023-07-09T02:29:40.054Z,13.13
2023-07-09T02:32:08.533Z,11.43
2023-07-09T02:34:36.283Z,10.00
2023-07-09T02:37:04.126Z,12.07
2023-07-09T02:39:31.600Z,12.27
2023-07-09T02:41:59.049Z,10.02
2023-07-09T02:44:28.068Z,10.30
2023-07-09T02:46:56.821Z,12.63
2023-07-09T02:49:24.382Z,10.73
2023-07-09T02:51:51.880Z,11.60
2023-07-09T02:54:19.448Z,10.68
2023-07-09T02:56:47.572Z,11.48
2023-07-09T02:59:15.086Z,8.77
2023-07-09T03:01:44.404Z,9.38
2023-07-09T03:04:12.027Z,10.00
2023-07-09T03:06:39.620Z,10.15
2023-07-09T03:09:07.879Z,12.80
2023-07-09T03:11:36.978Z,11.47
2023-07-09T03:14:04.667Z,9.90
2023-07-09T03:16:34.210Z,11.23
2023-07-09T03:19:04.134Z,9.90
2023-07-09T03:21:31.628Z,9.80
2023-07-09T03:23:59.527Z,11.93
2023-07-09T03:26:27.360Z,9.68
2023-07-09T03:28:55.663Z,9.13
2023-07-09T03:31:24.285Z,9.10
2023-07-09T03:33:53.163Z,12.75
2023-07-09T03:36:22.498Z,10.50
2023-07-09T03:38:50.263Z,11.55
2023-07-09T03:41:18.286Z,12.10
2023-07-09T03:43:45.842Z,10.77
2023-07-09T03:46:13.798Z,8.95
2023-07-09T03:48:41.387Z,12.73
2023-07-09T03:51:08.927Z,9.93
2023-07-09T03:53:37.767Z,10.52
2023-07-09T03:56:05.749Z,9.50
2023-07-09T03:58:33.438Z,13.52
2023-07-09T04:01:00.961Z,9.87
2023-07-09T04:03:28.583Z,11.65
2023-07-09T04:05:56.260Z,12.75
2023-07-09T04:08:23.816Z,13.00
2023-07-09T04:10:55.461Z,9.23
2023-07-09T04:13:23.017Z,11.50
2023-07-09T04:15:50.872Z,9.10
2023-07-09T04:18:18.467Z,9.15
2023-07-09T04:20:50.522Z,10.13
2023-07-09T04:23:18.218Z,9.70
2023-07-09T04:25:45.826Z,9.70
2023-07-09T04:28:14.798Z,12.25
2023-07-09T04:30:48.904Z,9.52
2023-07-09T04:33:18.297Z,9.25
2023-07-09T04:35:46.707Z,9.35
2023-07-09T04:38:15.009Z,10.00
2023-07-09T04:40:42.615Z,10.82
2023-07-09T04:43:10.116Z,10.50
2023-07-09T04:45:39.005Z,9.48
2023-07-09T04:48:07.561Z,8.43
2023-07-09T04:50:35.408Z,9.43
2023-07-09T04:53:02.966Z,9.48
2023-07-09T04:55:30.596Z,8.52
2023-07-09T04:57:58.044Z,8.95
2023-07-09T05:00:25.730Z,8.60
2023-07-09T05:02:54.605Z,9.10
2023-07-09T05:05:22.229Z,9.82
2023-07-09T05:07:50.012Z,9.57
2023-07-09T05:10:17.593Z,8.52
2023-07-09T05:12:52.145Z,12.32
2023-07-09T05:15:20.647Z,12.07
2023-07-09T05:17:48.240Z,9.27
2023-07-09T05:20:17.774Z,10.38
2023-07-09T05:22:45.317Z,9.85
2023-07-09T05:25:14.038Z,8.68
2023-07-09T05:27:41.496Z,9.10
2023-07-09T05:30:09.944Z,10.00
2023-07-09T05:32:39.374Z,10.25
2023-07-09T05:35:08.278Z,7.88
2023-07-09T05:37:37.712Z,8.73
2023-07-09T05:40:06.493Z,9.37
2023-07-09T05:42:34.056Z,8.13
2023-07-09T05:45:01.905Z,9.20
2023-07-09T05:47:29.489Z,10.63
2023-07-09T05:49:57.025Z,8.30
2023-07-09T05:52:25.397Z,9.83
2023-07-09T05:54:54.644Z,7.75
2023-07-09T05:57:22.442Z,9.40
2023-07-09T05:59:50.658Z,8.40
2023-07-09T06:02:21.034Z,8.05
2023-07-09T06:04:50.009Z,9.57
2023-07-09T06:07:17.636Z,7.68
2023-07-09T06:09:46.764Z,9.85
2023-07-09T06:12:15.847Z,9.18
2023-07-09T06:14:43.493Z,8.57
2023-07-09T06:17:11.037Z,8.93
2023-07-09T06:19:39.104Z,10.20
2023-07-09T06:22:07.033Z,8.68
2023-07-09T06:24:34.602Z,9.32
2023-07-09T06:27:02.095Z,8.75
2023-07-09T06:29:30.975Z,7.93
2023-07-09T06:31:58.477Z,11.13
2023-07-09T06:34:25.956Z,9.52
2023-07-09T06:36:53.497Z,8.18
2023-07-09T06:39:21.360Z,8.30
2023-07-09T06:41:48.848Z,9.97
2023-07-09T06:44:16.460Z,9.23
2023-07-09T06:46:47.051Z,10.40
2023-07-09T06:49:14.967Z,8.93
2023-07-09T06:51:42.461Z,9.32
2023-07-09T06:54:10.674Z,8.03
2023-07-09T06:56:38.201Z,9.75
2023-07-09T06:59:05.971Z,9.38
2023-07-09T07:01:33.615Z,7.68
2023-07-09T07:04:02.552Z,9.18
2023-07-09T07:06:30.184Z,8.30
2023-07-09T07:08:57.721Z,9.15
2023-07-09T07:11:30.898Z,9.52
2023-07-09T07:13:58.673Z,8.27
2023-07-09T07:16:26.466Z,7.90
2023-07-09T07:18:53.992Z,8.27
2023-07-09T07:21:22.933Z,8.75
2023-07-09T07:23:52.734Z,8.07
2023-07-09T07:26:21.567Z,7.90
2023-07-09T07:28:49.056Z,8.85
2023-07-09T07:31:16.603Z,8.00
2023-07-09T07:33:44.681Z,9.55
2023-07-09T07:36:28.960Z,7.03
2023-07-09T07:38:59.272Z,9.52
2023-07-09T07:41:27.201Z,6.57
2023-07-09T07:43:54.820Z,8.70
2023-07-09T07:46:22.314Z,6.78
2023-07-09T07:48:49.841Z,7.10
2023-07-09T07:51:17.386Z,12.00
2023-07-09T07:53:45.180Z,9.43
2023-07-09T07:56:14.037Z,6.53
2023-07-09T07:58:41.515Z,8.95
2023-07-09T08:01:09.013Z,8.43
2023-07-09T08:03:36.719Z,9.07
2023-07-09T08:06:04.933Z,7.45
2023-07-09T08:08:32.654Z,9.47
2023-07-09T08:11:05.760Z,7.70
2023-07-09T08:13:35.042Z,10.30
2023-07-09T08:16:03.481Z,8.35
2023-07-09T08:18:31.419Z,6.13
2023-07-09T08:21:00.346Z,8.70
2023-07-09T08:23:27.856Z,9.02
2023-07-09T08:25:55.855Z,6.40
2023-07-09T08:28:23.487Z,7.75
2023-07-09T08:30:53.796Z,7.30
2023-07-09T08:33:21.333Z,9.53
2023-07-09T08:35:51.069Z,6.75
2023-07-09T08:38:19.721Z,7.13
2023-07-09T08:40:56.319Z,7.32
2023-07-09T08:43:34.062Z,7.43
2023-07-09T08:46:11.997Z,8.37
2023-07-09T08:48:44.132Z,6.75
2023-07-09T08:51:17.192Z,6.75
2023-07-09T08:53:50.197Z,8.60
2023-07-09T08:56:18.375Z,6.53
2023-07-09T08:58:47.624Z,10.80
2023-07-09T09:01:21.482Z,6.93
2023-07-09T09:03:52.564Z,8.18
2023-07-09T09:06:23.494Z,7.50
2023-07-09T09:09:00.676Z,9.10
2023-07-09T09:11:38.645Z,8.57
2023-07-09T09:14:13.725Z,7.78
2023-07-09T09:16:47.342Z,6.90
2023-07-09T09:19:22.179Z,10.23
2023-07-09T09:21:56.606Z,5.82
2023-07-09T09:24:31.270Z,7.27
2023-07-09T09:27:00.684Z,8.40
2023-07-09T09:29:28.744Z,8.13
2023-07-09T09:31:59.465Z,9.45
2023-07-09T09:34:29.166Z,6.65
2023-07-09T09:36:57.755Z,7.93
2023-07-09T09:39:26.514Z,6.93
2023-07-09T09:41:56.788Z,6.53
2023-07-09T09:44:28.008Z,7.95
2023-07-09T09:47:00.571Z,10.75
2023-07-09T09:49:29.152Z,8.70
2023-07-09T09:51:58.064Z,8.70
2023-07-09T09:54:31.247Z,9.23
2023-07-09T09:56:58.779Z,7.82
2023-07-09T09:59:31.912Z,7.40
2023-07-09T10:02:02.583Z,7.20
2023-07-09T10:04:30.255Z,6.65
2023-07-09T10:07:00.760Z,6.28
2023-07-09T10:09:39.833Z,6.65
2023-07-09T10:12:18.749Z,7.63
2023-07-09T10:14:54.841Z,8.10
2023-07-09T10:17:39.150Z,8.23
2023-07-09T10:20:17.351Z,8.73
2023-07-09T10:22:55.218Z,7.38
2023-07-09T10:25:35.976Z,8.25
2023-07-09T10:28:18.817Z,8.70
2023-07-09T10:30:57.125Z,7.80
2023-07-09T10:33:35.228Z,7.30
2023-07-09T10:36:23.572Z,8.35
2023-07-09T10:38:57.214Z,7.10
2023-07-09T10:41:28.171Z,10.63
2023-07-09T10:44:02.180Z,6.22
2023-07-09T10:46:37.186Z,6.47
2023-07-09T10:49:08.179Z,5.95
2023-07-09T10:51:43.956Z,8.35
2023-07-09T10:54:17.548Z,8.23
2023-07-09T10:56:48.864Z,7.68
2023-07-09T10:59:23.281Z,8.43
2023-07-09T11:01:54.531Z,6.10
2023-07-09T11:04:31.723Z,8.48
2023-07-09T11:07:03.295Z,7.23
2023-07-09T11:09:35.070Z,8.35
2023-07-09T11:12:08.322Z,7.80
2023-07-09T11:14:41.815Z,6.15
2023-07-09T11:17:16.380Z,6.35
2023-07-09T11:19:48.259Z,8.07
2023-07-09T11:22:23.285Z,7.22
2023-07-09T11:24:53.408Z,6.97
2023-07-09T11:27:24.138Z,6.10
2023-07-09T11:29:59.886Z,7.40
2023-07-09T11:32:29.363Z,7.20
2023-07-09T11:35:08.424Z,7.80
2023-07-09T11:37:47.170Z,7.53
2023-07-09T11:40:16.509Z,8.43
2023-07-09T11:42:55.494Z,6.78
2023-07-09T11:45:28.146Z,6.90
2023-07-09T11:48:05.921Z,6.10
2023-07-09T11:50:41.226Z,6.45
2023-07-09T11:53:28.906Z,6.95
2023-07-09T11:55:56.471Z,5.03
2023-07-09T11:58:24.070Z,10.80
2023-07-09T12:00:53.881Z,8.40
2023-07-09T12:03:25.081Z,7.97
2023-07-09T12:05:56.249Z,6.65
2023-07-09T12:08:29.283Z,6.00
2023-07-09T12:10:56.831Z,7.53
2023-07-09T12:13:24.410Z,7.40
2023-07-09T12:15:51.978Z,9.48
2023-07-09T12:18:19.742Z,7.72
2023-07-09T12:20:55.918Z,6.47
2023-07-09T12:23:27.547Z,8.57
2023-07-09T12:25:55.990Z,9.20
2023-07-09T12:28:24.275Z,6.43
2023-07-09T12:30:53.752Z,6.85
2023-07-09T12:33:25.004Z,8.30
2023-07-09T12:36:00.401Z,8.67
2023-07-09T12:38:30.552Z,7.03
2023-07-09T12:41:02.563Z,8.63
2023-07-09T12:43:32.891Z,7.80
2023-07-09T12:46:01.446Z,7.35
2023-07-09T12:48:31.517Z,7.03
2023-07-09T12:51:01.688Z,7.18
2023-07-09T12:53:31.508Z,6.85
2023-07-09T12:56:01.993Z,8.38
2023-07-09T12:58:32.833Z,6.82
2023-07-09T13:01:07.319Z,8.33
2023-07-09T13:03:36.217Z,8.35
2023-07-09T13:06:08.720Z,6.55
2023-07-09T13:08:44.241Z,6.47
2023-07-09T13:11:17.324Z,6.53
2023-07-09T13:13:56.892Z,8.30
2023-07-09T13:16:24.525Z,11.00
2023-07-09T13:18:52.013Z,9.70
2023-07-09T13:21:22.626Z,6.90
2023-07-09T13:23:50.998Z,6.80
2023-07-09T13:26:18.604Z,7.23
2023-07-09T13:28:46.519Z,7.50
2023-07-09T13:31:16.841Z,8.23
2023-07-09T13:33:44.647Z,7.63
2023-07-09T13:36:12.607Z,6.95
2023-07-09T13:38:42.251Z,6.60
2023-07-09T13:41:15.890Z,6.47
2023-07-09T13:43:45.365Z,6.45
2023-07-09T13:46:13.354Z,7.55
2023-07-09T13:48:43.363Z,6.07
2023-07-09T13:51:17.732Z,7.57
2023-07-09T13:53:47.189Z,5.70
2023-07-09T13:56:14.693Z,10.07
2023-07-09T13:58:42.165Z,7.07
2023-07-09T14:01:13.996Z,7.25
2023-07-09T14:03:41.640Z,11.90
2023-07-09T14:06:11.064Z,7.38
2023-07-09T14:08:38.539Z,11.05
2023-07-09T14:11:12.317Z,15.45
2023-07-09T14:13:40.389Z,6.75
2023-07-09T14:16:08.892Z,10.80
2023-07-09T14:18:36.519Z,8.40
2023-07-09T14:21:11.394Z,7.97
2023-07-09T14:23:38.895Z,9.48
2023-07-09T14:26:07.791Z,8.93
2023-07-09T14:28:35.398Z,8.77
2023-07-09T14:31:03.516Z,7.63
2023-07-09T14:33:31.373Z,7.07
2023-07-09T14:35:58.866Z,8.07
2023-07-09T14:38:27.494Z,6.82
2023-07-09T14:40:57.776Z,7.73
2023-07-09T14:43:26.634Z,5.65
2023-07-09T14:45:54.252Z,7.60
2023-07-09T14:48:22.759Z,8.23
2023-07-09T14:50:50.651Z,6.20
2023-07-09T14:53:23.853Z,7.67
2023-07-09T14:55:51.375Z,7.35
2023-07-09T14:58:20.991Z,7.07
2023-07-09T15:00:50.420Z,4.47
2023-07-09T15:03:21.774Z,6.50
2023-07-09T15:05:50.001Z,5.97
2023-07-09T15:08:19.556Z,7.65
2023-07-09T15:10:48.176Z,6.70
2023-07-09T15:13:19.667Z,7.07
2023-07-09T15:15:47.672Z,8.48
2023-07-09T15:18:18.408Z,5.73
2023-07-09T15:20:51.416Z,5.43
2023-07-09T15:23:19.482Z,7.18
2023-07-09T15:25:47.162Z,5.40
2023-07-09T15:28:14.677Z,7.22
2023-07-09T15:30:42.603Z,5.87
2023-07-09T15:33:16.862Z,6.35
2023-07-09T15:35:47.584Z,6.28
2023-07-09T15:38:35.846Z,6.40
2023-07-09T15:41:04.291Z,7.68
2023-07-09T15:43:32.043Z,5.73
2023-07-09T15:46:01.570Z,6.82
2023-07-09T15:48:33.565Z,5.13
2023-07-09T15:51:04.325Z,5.93
2023-07-09T15:53:33.157Z,7.05
2023-07-09T15:56:02.220Z,5.13
2023-07-09T15:58:35.157Z,5.57
2023-07-09T16:01:02.960Z,7.53
2023-07-09T16:03:31.173Z,5.20
2023-07-09T16:05:58.729Z,6.85
2023-07-09T16:08:28.034Z,6.40
2023-07-09T16:10:55.649Z,6.18
2023-07-09T16:13:25.002Z,6.50
2023-07-09T16:15:53.396Z,5.93
2023-07-09T16:18:21.365Z,5.90
2023-07-09T16:20:49.484Z,6.00
2023-07-09T16:23:19.549Z,10.38
2023-07-09T16:25:49.386Z,7.53
2023-07-09T16:28:20.597Z,7.15
2023-07-09T16:30:51.483Z,5.93
2023-07-09T16:33:19.136Z,9.13
2023-07-09T16:35:47.833Z,5.97
2023-07-09T16:38:15.366Z,5.47
2023-07-09T16:40:42.952Z,5.65
2023-07-09T16:43:16.675Z,7.45
2023-07-09T16:45:44.283Z,4.90
2023-07-09T16:48:17.898Z,5.70
2023-07-09T16:50:45.721Z,7.07
2023-07-09T16:53:15.479Z,7.65
2023-07-09T16:55:43.431Z,6.88
2023-07-09T16:58:25.919Z,5.50
2023-07-09T17:00:53.438Z,5.63
2023-07-09T17:03:20.993Z,4.13
2023-07-09T17:05:48.489Z,5.93
2023-07-09T17:08:15.954Z,4.63
2023-07-09T17:10:44.736Z,7.83
2023-07-09T17:13:21.489Z,6.03
2023-07-09T17:15:48.946Z,5.28
2023-07-09T17:18:20.824Z,7.65
2023-07-09T17:20:50.078Z,6.05
2023-07-09T17:23:17.855Z,4.50
2023-07-09T17:25:45.424Z,8.68
2023-07-09T17:28:17.987Z,9.93
2023-07-09T17:30:46.218Z,7.47
2023-07-09T17:33:14.031Z,6.93
2023-07-09T17:35:43.773Z,6.23
2023-07-09T17:38:15.950Z,7.53
2023-07-09T17:40:44.461Z,7.32
2023-07-09T17:43:17.228Z,7.20
2023-07-09T17:45:45.964Z,7.10
2023-07-09T17:48:18.225Z,7.33
2023-07-09T17:50:47.161Z,10.07
2023-07-09T17:53:19.084Z,9.15
2023-07-09T17:55:47.307Z,10.07
2023-07-09T17:58:25.717Z,11.07
2023-07-09T18:00:56.618Z,10.93
2023-07-09T18:03:24.267Z,14.00
2023-07-09T18:05:52.007Z,14.52
2023-07-09T18:08:19.977Z,12.65
2023-07-09T18:10:48.905Z,11.77
2023-07-09T18:13:21.714Z,12.57
2023-07-09T18:15:51.076Z,11.63
2023-07-09T18:18:19.030Z,10.65
2023-07-09T18:20:46.477Z,13.35
2023-07-09T18:23:14.003Z,13.32
2023-07-09T18:25:43.972Z,11.90
2023-07-09T18:28:21.255Z,13.70
2023-07-09T18:30:54.275Z,17.60
2023-07-09T18:33:24.708Z,11.70
2023-07-09T18:35:52.212Z,11.98
2023-07-09T18:38:19.693Z,14.10
2023-07-09T18:40:49.071Z,12.25
2023-07-09T18:43:30.673Z,13.75
2023-07-09T18:46:01.085Z,15.13
2023-07-09T18:48:30.208Z,17.33
2023-07-09T18:50:59.788Z,14.83
2023-07-09T18:53:28.737Z,16.77
2023-07-09T18:55:56.890Z,18.92
2023-07-09T18:58:26.601Z,15.10
2023-07-09T19:00:55.318Z,18.60
2023-07-09T19:03:29.719Z,15.10
2023-07-09T19:05:57.464Z,20.25
2023-07-09T19:08:28.015Z,22.58
2023-07-09T19:10:55.748Z,17.13
2023-07-09T19:13:23.646Z,18.55
2023-07-09T19:15:53.512Z,17.23
2023-07-09T19:18:24.733Z,15.75
2023-07-09T19:20:55.236Z,19.20
2023-07-09T19:23:24.181Z,17.67
2023-07-09T19:25:53.313Z,17.65
2023-07-09T19:28:22.929Z,19.83
2023-07-09T19:30:53.423Z,20.08
2023-07-09T19:33:24.945Z,18.45
2023-07-09T19:35:54.272Z,18.60
2023-07-09T19:38:21.837Z,19.38
2023-07-09T19:40:49.431Z,18.70
2023-07-09T19:43:16.962Z,19.30
2023-07-09T19:45:46.654Z,17.90
2023-07-09T19:48:18.729Z,19.65
2023-07-09T19:50:48.970Z,18.35
2023-07-09T19:53:21.676Z,21.47
2023-07-09T19:55:49.601Z,21.10
2023-07-09T19:58:17.533Z,20.23
2023-07-09T20:00:45.732Z,22.60
2023-07-09T20:03:24.730Z,24.05
2023-07-09T20:05:53.060Z,19.90
2023-07-09T20:08:24.069Z,19.92
2023-07-09T20:10:53.034Z,21.15
2023-07-09T20:13:24.803Z,23.90
2023-07-09T20:15:52.654Z,19.92
2023-07-09T20:18:21.068Z,23.63
2023-07-09T20:20:52.109Z,24.10
2023-07-09T20:23:22.356Z,23.55
2023-07-09T20:25:54.109Z,25.90
2023-07-09T20:28:23.917Z,23.60
2023-07-09T20:30:54.559Z,22.83
2023-07-09T20:33:22.818Z,22.85
2023-07-09T20:35:50.893Z,22.23
2023-07-09T20:38:20.112Z,22.63
2023-07-09T20:40:48.412Z,20.60
2023-07-09T20:43:21.977Z,19.47
2023-07-09T20:45:50.064Z,22.90
2023-07-09T20:48:18.036Z,19.60
2023-07-09T20:50:45.653Z,18.25
2023-07-09T20:53:15.103Z,18.58
2023-07-09T20:55:43.532Z,20.10
2023-07-09T20:58:15.095Z,19.77
2023-07-09T21:00:44.931Z,17.70
2023-07-09T21:03:17.165Z,21.60
2023-07-09T21:05:45.596Z,17.67
2023-07-09T21:08:16.851Z,18.00
2023-07-09T21:10:45.284Z,19.40
2023-07-09T21:13:14.771Z,17.42
2023-07-09T21:15:44.272Z,18.50
2023-07-09T21:18:16.674Z,18.20
2023-07-09T21:20:44.370Z,17.27
2023-07-09T21:23:15.549Z,17.73
2023-07-09T21:25:43.268Z,18.02
2023-07-09T21:28:10.874Z,14.48
2023-07-09T21:30:38.541Z,15.45
2023-07-09T21:33:11.318Z,17.10
2023-07-09T21:35:38.980Z,13.60
2023-07-09T21:38:16.841Z,12.63
2023-07-09T21:40:44.341Z,14.13
2023-07-09T21:43:11.880Z,16.48
2023-07-09T21:45:43.080Z,15.07
2023-07-09T21:48:15.940Z,16.80
2023-07-09T21:50:43.957Z,19.52
2023-07-09T21:53:16.762Z,15.68
2023-07-09T21:55:44.524Z,15.73
2023-07-09T21:58:12.933Z,13.63
2023-07-09T22:00:54.514Z,15.73
2023-07-09T22:03:24.624Z,13.60
2023-07-09T22:05:52.335Z,16.17
2023-07-09T22:08:22.198Z,18.85
2023-07-09T22:10:50.175Z,16.07
2023-07-09T22:13:20.172Z,17.23
2023-07-09T22:15:48.649Z,14.93
2023-07-09T22:18:18.540Z,21.40
2023-07-09T22:20:49.108Z,17.15
2023-07-09T22:23:20.481Z,15.00
2023-07-09T22:25:49.032Z,15.20
2023-07-09T22:28:18.441Z,14.70
2023-07-09T22:30:46.646Z,15.02
2023-07-09T22:33:14.552Z,15.38
2023-07-09T22:35:42.076Z,17.67
2023-07-09T22:38:19.825Z,18.73
2023-07-09T22:40:47.746Z,18.23
2023-07-09T22:43:15.512Z,18.50
2023-07-09T22:45:45.506Z,20.60
2023-07-09T22:48:15.299Z,14.23
2023-07-09T22:50:43.138Z,12.93
2023-07-09T22:53:14.451Z,12.48
2023-07-09T22:55:45.376Z,12.93
2023-07-09T22:58:15.607Z,14.50
2023-07-09T23:00:45.954Z,15.30
2023-07-09T23:03:16.184Z,16.85
2023-07-09T23:05:44.433Z,12.48
2023-07-09T23:08:19.397Z,14.95
2023-07-09T23:10:48.943Z,13.35
2023-07-09T23:13:16.926Z,12.03
2023-07-09T23:15:44.478Z,13.65
2023-07-09T23:18:14.468Z,13.55
2023-07-09T23:20:42.149Z,16.27
2023-07-09T23:23:09.809Z,14.15
2023-07-09T23:25:37.590Z,12.00
2023-07-09T23:28:07.577Z,12.48
2023-07-09T23:30:36.668Z,13.80
2023-07-09T23:33:16.206Z,13.32
2023-07-09T23:35:43.720Z,13.02
2023-07-09T23:38:11.229Z,11.77
2023-07-09T23:40:38.712Z,11.20
2023-07-09T23:43:12.842Z,9.95
2023-07-09T23:45:40.870Z,11.00
2023-07-09T23:48:21.217Z,13.65
2023-07-09T23:50:48.750Z,17.60
2023-07-09T23:53:23.724Z,14.57
2023-07-09T23:55:51.270Z,27.92
2023-07-09T23:58:25.624Z,29.10
